logo
Search for airport 
image banner adimage banner adimage banner ad
image banner ad

HKOP - Loporot

Located in , Kenya

ICAO - , IATA -

Data provided by Airmate  

General information

Coordinates: N2°44'0" E36°14'0"
Elevation is 1434 feet MSL.
 
View others Airports in Eastern Province

Operational data

Special qualification required
Current time UTC:
Current local time:
Weather at : - ( 0 km )
METAR: PAPE 230417Z AUTO 13007KT 10SM BKN027 OVC090 04/00 A2988 RMK AO2
View NOTAMs / SUP AIP / TFR affecting this airport [VIEW]
Communications frequencies: [VIEW]

Runways:

RWY identifierQFULength (ft)Width (ft)SurfaceLDA (ft)
1500UNK
3300UNK

Airport contact information

Address: Kenya

Satellite view of HKOP